createdAt,value
2022-10-31T00:00:29.269Z,1013.5
2022-10-31T00:01:45.000Z,1013.5
2022-10-31T00:03:01.000Z,1013.5
2022-10-31T00:04:18.000Z,1013.5
2022-10-31T00:05:34.000Z,1013.5
2022-10-31T00:06:50.000Z,1013.5
2022-10-31T00:08:06.000Z,1013.5
2022-10-31T00:09:23.000Z,1013.5
2022-10-31T00:11:55.000Z,1013.6
2022-10-31T00:13:12.000Z,1013.6
2022-10-31T00:14:28.000Z,1013.6
2022-10-31T00:17:00.000Z,1013.5
2022-10-31T00:18:16.000Z,1013.6
2022-10-31T00:19:31.000Z,1013.6
2022-10-31T00:20:47.000Z,1013.6
2022-10-31T00:22:04.000Z,1013.7
2022-10-31T00:23:20.000Z,1013.7
2022-10-31T00:24:36.000Z,1013.7
2022-10-31T00:25:53.000Z,1013.7
2022-10-31T00:27:09.000Z,1013.6
2022-10-31T00:28:25.000Z,1013.7
2022-10-31T00:29:41.000Z,1013.7
2022-10-31T00:30:58.000Z,1013.7
2022-10-31T00:32:13.000Z,1013.7
2022-10-31T00:33:28.000Z,1013.6
2022-10-31T00:36:01.000Z,1013.6
2022-10-31T00:37:17.000Z,1013.7
2022-10-31T00:38:33.000Z,1013.6
2022-10-31T00:39:50.000Z,1013.7
2022-10-31T00:41:06.000Z,1013.7
2022-10-31T00:42:22.000Z,1013.7
2022-10-31T00:43:39.000Z,1013.7
2022-10-31T00:44:55.000Z,1013.7
2022-10-31T00:46:11.687Z,1013.7
2022-10-31T00:48:44.000Z,1013.7
2022-10-31T00:49:59.000Z,1013.6
2022-10-31T00:51:14.000Z,1013.7
2022-10-31T00:52:31.000Z,1013.6
2022-10-31T00:53:47.000Z,1013.6
2022-10-31T00:55:03.000Z,1013.6
2022-10-31T00:56:20.000Z,1013.6
2022-10-31T00:57:36.000Z,1013.7
2022-10-31T00:58:52.000Z,1013.7
2022-10-31T01:00:08.000Z,1013.6
2022-10-31T01:01:25.000Z,1013.6
2022-10-31T01:02:41.000Z,1013.6
2022-10-31T01:03:56.000Z,1013.7
2022-10-31T01:05:12.000Z,1013.7
2022-10-31T01:06:28.000Z,1013.7
2022-10-31T01:07:44.000Z,1013.7
2022-10-31T01:09:00.000Z,1013.7
2022-10-31T01:10:17.000Z,1013.7
2022-10-31T01:11:33.000Z,1013.7
2022-10-31T01:14:06.000Z,1013.6
2022-10-31T01:16:38.000Z,1013.8
2022-10-31T01:17:54.000Z,1013.7
2022-10-31T01:19:11.000Z,1013.7
2022-10-31T01:20:26.000Z,1013.7
2022-10-31T01:21:42.000Z,1013.7
2022-10-31T01:22:59.000Z,1013.7
2022-10-31T01:24:15.000Z,1013.7
2022-10-31T01:26:48.000Z,1013.8
2022-10-31T01:28:04.000Z,1013.8
2022-10-31T01:29:20.000Z,1013.8
2022-10-31T01:30:36.000Z,1013.8
2022-10-31T01:31:53.000Z,1013.9
2022-10-31T01:33:09.000Z,1013.9
2022-10-31T01:34:25.000Z,1013.9
2022-10-31T01:35:42.000Z,1013.9
2022-10-31T01:36:58.000Z,1013.9
2022-10-31T01:38:13.000Z,1013.8
2022-10-31T01:39:29.000Z,1013.8
2022-10-31T01:40:46.000Z,1013.8
2022-10-31T01:42:02.000Z,1013.8
2022-10-31T01:43:18.000Z,1013.8
2022-10-31T01:44:35.000Z,1013.9
2022-10-31T01:45:51.000Z,1013.8
2022-10-31T01:47:07.000Z,1013.8
2022-10-31T01:48:23.000Z,1013.9
2022-10-31T01:49:38.000Z,1013.7
2022-10-31T01:50:54.000Z,1013.8
2022-10-31T01:52:10.000Z,1013.9
2022-10-31T01:53:27.000Z,1013.9
2022-10-31T01:54:43.000Z,1013.9
2022-10-31T01:55:59.000Z,1013.8
2022-10-31T01:57:16.000Z,1013.8
2022-10-31T01:58:32.000Z,1013.8
2022-10-31T01:59:48.000Z,1013.7
2022-10-31T02:01:04.000Z,1013.7
2022-10-31T02:02:20.000Z,1013.7
2022-10-31T02:04:51.000Z,1013.6
2022-10-31T02:06:08.000Z,1013.6
2022-10-31T02:07:24.000Z,1013.7
2022-10-31T02:08:40.000Z,1013.7
2022-10-31T02:09:56.000Z,1013.7
2022-10-31T02:11:13.000Z,1013.7
2022-10-31T02:12:29.000Z,1013.7
2022-10-31T02:13:45.000Z,1013.8
2022-10-31T02:15:02.000Z,1013.8
2022-10-31T02:17:34.000Z,1013.8
2022-10-31T02:18:50.000Z,1013.8
2022-10-31T02:20:06.000Z,1013.8
2022-10-31T02:21:22.000Z,1013.9
2022-10-31T02:22:38.000Z,1014
2022-10-31T02:23:55.000Z,1013.9
2022-10-31T02:25:11.000Z,1014
2022-10-31T02:26:27.000Z,1014
2022-10-31T02:27:44.000Z,1014
2022-10-31T02:29:00.000Z,1013.9
2022-10-31T02:30:16.000Z,1014
2022-10-31T02:31:32.000Z,1014
2022-10-31T02:32:49.000Z,1013.9
2022-10-31T02:34:05.000Z,1014
2022-10-31T02:35:21.000Z,1014
2022-10-31T02:36:37.000Z,1014
2022-10-31T02:37:53.000Z,1014
2022-10-31T02:39:09.000Z,1013.9
2022-10-31T02:40:25.000Z,1014
2022-10-31T02:41:42.000Z,1014
2022-10-31T02:44:14.000Z,1014
2022-10-31T02:45:31.000Z,1014
2022-10-31T02:46:47.000Z,1014
2022-10-31T02:48:03.000Z,1014
2022-10-31T02:49:19.000Z,1014
2022-10-31T02:50:36.000Z,1014
2022-10-31T02:53:08.000Z,1013.9
2022-10-31T02:55:40.000Z,1013.8
2022-10-31T02:56:55.000Z,1013.9
2022-10-31T02:58:10.000Z,1013.7
2022-10-31T02:59:27.000Z,1013.8
2022-10-31T03:00:43.000Z,1013.8
2022-10-31T03:01:59.000Z,1013.8
2022-10-31T03:03:16.000Z,1013.7
2022-10-31T03:05:48.000Z,1013.8
2022-10-31T03:07:04.000Z,1013.8
2022-10-31T03:08:21.000Z,1013.8
2022-10-31T03:09:37.000Z,1013.8
2022-10-31T03:10:53.000Z,1013.8
2022-10-31T03:12:10.000Z,1013.8
2022-10-31T03:13:26.000Z,1013.8
2022-10-31T03:14:41.000Z,1013.8
2022-10-31T03:15:58.000Z,1013.8
2022-10-31T03:17:14.000Z,1013.9
2022-10-31T03:18:30.000Z,1013.8
2022-10-31T03:21:03.000Z,1013.9
2022-10-31T03:22:18.000Z,1013.9
2022-10-31T03:23:33.000Z,1013.9
2022-10-31T03:24:50.000Z,1013.9
2022-10-31T03:26:06.000Z,1013.9
2022-10-31T03:27:22.000Z,1013.9
2022-10-31T03:28:38.000Z,1013.9
2022-10-31T03:29:55.000Z,1013.9
2022-10-31T03:31:11.000Z,1013.9
2022-10-31T03:32:27.000Z,1013.9
2022-10-31T03:33:44.000Z,1013.9
2022-10-31T03:35:00.000Z,1013.9
2022-10-31T03:37:31.000Z,1013.8
2022-10-31T03:38:47.000Z,1013.9
2022-10-31T03:40:03.000Z,1013.9
2022-10-31T03:41:19.000Z,1013.9
2022-10-31T03:42:36.000Z,1013.8
2022-10-31T03:43:52.000Z,1013.8
2022-10-31T03:45:08.000Z,1013.8
2022-10-31T03:46:24.000Z,1013.8
2022-10-31T03:47:41.000Z,1013.9
2022-10-31T03:48:57.000Z,1013.9
2022-10-31T03:50:12.000Z,1013.9
2022-10-31T03:51:28.000Z,1013.8
2022-10-31T03:52:44.000Z,1013.8
2022-10-31T03:54:00.000Z,1013.8
2022-10-31T03:55:17.000Z,1013.8
2022-10-31T03:56:33.000Z,1013.9
2022-10-31T03:57:49.000Z,1013.9
2022-10-31T03:59:05.000Z,1013.9
2022-10-31T04:00:22.000Z,1013.9
2022-10-31T04:01:38.000Z,1013.8
2022-10-31T04:02:54.000Z,1013.9
2022-10-31T04:04:10.000Z,1013.8
2022-10-31T04:05:25.000Z,1013.9
2022-10-31T04:06:41.000Z,1013.9
2022-10-31T04:07:57.000Z,1014
2022-10-31T04:09:14.000Z,1014
2022-10-31T04:11:46.000Z,1013.9
2022-10-31T04:13:03.000Z,1013.9
2022-10-31T04:14:19.000Z,1013.9
2022-10-31T04:16:51.000Z,1013.9
2022-10-31T04:18:08.000Z,1013.9
2022-10-31T04:19:24.000Z,1013.9
2022-10-31T04:20:39.000Z,1013.9
2022-10-31T04:21:55.000Z,1013.8
2022-10-31T04:24:27.000Z,1013.8
2022-10-31T04:25:44.000Z,1013.8
2022-10-31T04:27:00.000Z,1013.8
2022-10-31T04:28:16.000Z,1013.8
2022-10-31T04:29:32.000Z,1013.8
2022-10-31T04:30:49.000Z,1013.9
2022-10-31T04:32:05.000Z,1013.9
2022-10-31T04:33:21.000Z,1013.9
2022-10-31T04:34:38.000Z,1013.8
2022-10-31T04:35:54.000Z,1013.9
2022-10-31T04:37:10.000Z,1013.9
2022-10-31T04:38:25.000Z,1014
2022-10-31T04:39:42.000Z,1014
2022-10-31T04:40:58.000Z,1013.9
2022-10-31T04:42:14.000Z,1013.9
2022-10-31T04:43:31.000Z,1013.9
2022-10-31T04:44:47.000Z,1013.9
2022-10-31T04:46:03.000Z,1013.9
2022-10-31T04:47:19.000Z,1013.9
2022-10-31T04:49:51.000Z,1013.8
2022-10-31T04:51:06.000Z,1013.9
2022-10-31T04:52:22.000Z,1013.9
2022-10-31T04:53:38.000Z,1013.9
2022-10-31T04:54:54.000Z,1013.9
2022-10-31T04:56:10.000Z,1013.9
2022-10-31T04:57:27.000Z,1013.9
2022-10-31T04:58:43.000Z,1013.9
2022-10-31T04:59:59.000Z,1013.8
2022-10-31T05:02:32.000Z,1013.9
2022-10-31T05:03:48.000Z,1013.8
2022-10-31T05:05:04.000Z,1013.8
2022-10-31T05:06:21.000Z,1013.8
2022-10-31T05:07:37.000Z,1013.8
2022-10-31T05:08:52.000Z,1013.9
2022-10-31T05:10:09.000Z,1013.9
2022-10-31T05:11:25.000Z,1013.9
2022-10-31T05:12:41.000Z,1013.9
2022-10-31T05:13:58.000Z,1013.8
2022-10-31T05:15:14.000Z,1013.8
2022-10-31T05:16:30.000Z,1013.8
2022-10-31T05:17:46.000Z,1013.8
2022-10-31T05:19:03.000Z,1013.8
2022-10-31T05:20:19.000Z,1013.8
2022-10-31T05:21:35.000Z,1013.8
2022-10-31T05:22:52.000Z,1013.8
2022-10-31T05:24:08.000Z,1013.8
2022-10-31T05:25:23.000Z,1013.7
2022-10-31T05:26:39.000Z,1013.7
2022-10-31T05:27:56.000Z,1013.7
2022-10-31T05:29:12.000Z,1013.7
2022-10-31T05:30:28.000Z,1013.7
2022-10-31T05:31:45.000Z,1013.7
2022-10-31T05:33:01.000Z,1013.7
2022-10-31T05:34:17.000Z,1013.7
2022-10-31T05:35:33.000Z,1013.7
2022-10-31T05:36:50.000Z,1013.7
2022-10-31T05:38:06.000Z,1013.7
2022-10-31T05:39:22.000Z,1013.8
2022-10-31T05:40:39.000Z,1013.8
2022-10-31T05:41:54.000Z,1013.8
2022-10-31T05:43:10.000Z,1013.9
2022-10-31T05:44:26.000Z,1013.9
2022-10-31T05:45:43.000Z,1013.8
2022-10-31T05:46:59.000Z,1013.8
2022-10-31T05:48:15.000Z,1013.8
2022-10-31T05:49:31.000Z,1013.8
2022-10-31T05:50:48.000Z,1013.7
2022-10-31T05:53:20.000Z,1013.8
2022-10-31T05:54:36.000Z,1013.8
2022-10-31T05:55:53.000Z,1013.8
2022-10-31T05:57:09.000Z,1013.9
2022-10-31T05:58:24.000Z,1013.9
2022-10-31T05:59:40.000Z,1013.8
2022-10-31T06:00:57.000Z,1013.8
2022-10-31T06:02:13.000Z,1013.8
2022-10-31T06:03:29.000Z,1013.7
2022-10-31T06:06:01.000Z,1013.7
2022-10-31T06:07:18.000Z,1013.8
2022-10-31T06:08:34.000Z,1013.8
2022-10-31T06:09:50.000Z,1013.7
2022-10-31T06:11:06.000Z,1013.8
2022-10-31T06:12:23.000Z,1013.7
2022-10-31T06:13:39.000Z,1013.7
2022-10-31T06:14:54.000Z,1013.8
2022-10-31T06:16:10.000Z,1013.7
2022-10-31T06:17:27.000Z,1013.7
2022-10-31T06:18:43.000Z,1013.7
2022-10-31T06:19:59.000Z,1013.7
2022-10-31T06:21:15.000Z,1013.7
2022-10-31T06:22:31.000Z,1013.8
2022-10-31T06:23:48.000Z,1013.7
2022-10-31T06:25:04.000Z,1013.7
2022-10-31T06:26:20.000Z,1013.7
2022-10-31T06:27:36.000Z,1013.7
2022-10-31T06:28:53.000Z,1013.7
2022-10-31T06:30:09.000Z,1013.7
2022-10-31T06:31:25.000Z,1013.7
2022-10-31T06:32:40.000Z,1013.7
2022-10-31T06:33:57.000Z,1013.8
2022-10-31T06:35:13.000Z,1013.8
2022-10-31T06:36:28.000Z,1013.8
2022-10-31T06:37:44.000Z,1013.8
2022-10-31T06:39:01.000Z,1013.8
2022-10-31T06:40:17.000Z,1013.8
2022-10-31T06:41:33.000Z,1013.8
2022-10-31T06:44:05.000Z,1013.8
2022-10-31T06:45:22.000Z,1013.9
2022-10-31T06:46:38.000Z,1013.9
2022-10-31T06:47:54.000Z,1013.9
2022-10-31T06:50:27.000Z,1013.9
2022-10-31T06:51:43.000Z,1013.8
2022-10-31T06:52:58.000Z,1013.8
2022-10-31T06:54:14.000Z,1013.8
2022-10-31T06:56:47.000Z,1013.9
2022-10-31T06:58:02.000Z,1013.9
2022-10-31T06:59:17.000Z,1013.9
2022-10-31T07:00:34.000Z,1013.9
2022-10-31T07:01:50.000Z,1013.9
2022-10-31T07:03:06.000Z,1014
2022-10-31T07:04:22.000Z,1013.9
2022-10-31T07:06:55.000Z,1014
2022-10-31T07:09:27.000Z,1014
2022-10-31T07:10:43.000Z,1014
2022-10-31T07:12:00.000Z,1014
2022-10-31T07:13:16.000Z,1014
2022-10-31T07:14:31.000Z,1014
2022-10-31T07:15:46.000Z,1014
2022-10-31T07:17:03.000Z,1014
2022-10-31T07:19:35.000Z,1014
2022-10-31T07:23:24.000Z,1014
2022-10-31T07:24:40.000Z,1013.9
2022-10-31T07:25:56.000Z,1013.9
2022-10-31T07:27:13.000Z,1014
2022-10-31T07:28:29.000Z,1014
2022-10-31T07:29:45.000Z,1014
2022-10-31T07:31:01.000Z,1014
2022-10-31T07:32:16.000Z,1014
2022-10-31T07:33:33.000Z,1014
2022-10-31T07:34:49.000Z,1014
2022-10-31T07:37:21.000Z,1014
2022-10-31T07:38:38.000Z,1014
2022-10-31T07:41:10.000Z,1014
2022-10-31T07:42:26.000Z,1014
2022-10-31T07:43:43.000Z,1014
2022-10-31T07:44:59.000Z,1014.1
2022-10-31T07:46:15.000Z,1014
2022-10-31T07:47:31.000Z,1014
2022-10-31T07:48:47.000Z,1014.1
2022-10-31T07:50:03.000Z,1014
2022-10-31T07:51:19.000Z,1014
2022-10-31T07:52:35.000Z,1014
2022-10-31T07:53:51.000Z,1014
2022-10-31T07:55:08.000Z,1014
2022-10-31T07:56:24.000Z,1014
2022-10-31T07:57:40.000Z,1014
2022-10-31T07:58:56.000Z,1014
2022-10-31T08:00:13.000Z,1014
2022-10-31T08:01:29.000Z,1014
2022-10-31T08:02:45.000Z,1013.9
2022-10-31T08:04:00.000Z,1013.9
2022-10-31T08:05:16.000Z,1013.9
2022-10-31T08:06:32.000Z,1013.9
2022-10-31T08:07:48.000Z,1013.8
2022-10-31T08:09:04.000Z,1013.8
2022-10-31T08:10:21.000Z,1013.8
2022-10-31T08:12:53.000Z,1013.7
2022-10-31T08:14:09.000Z,1013.7
2022-10-31T08:15:25.000Z,1013.7
2022-10-31T08:16:42.000Z,1013.7
2022-10-31T08:17:58.000Z,1013.8
2022-10-31T08:19:14.000Z,1013.8
2022-10-31T08:20:30.000Z,1013.8
2022-10-31T08:21:46.000Z,1013.8
2022-10-31T08:23:02.000Z,1013.8
2022-10-31T08:25:34.000Z,1013.7
2022-10-31T08:26:50.000Z,1013.7
2022-10-31T08:28:05.000Z,1013.7
2022-10-31T08:29:21.000Z,1013.7
2022-10-31T08:30:37.000Z,1013.6
2022-10-31T08:31:54.000Z,1013.6
2022-10-31T08:33:10.000Z,1013.6
2022-10-31T08:34:26.000Z,1013.6
2022-10-31T08:35:42.000Z,1013.5
2022-10-31T08:36:58.000Z,1013.6
2022-10-31T08:38:15.000Z,1013.6
2022-10-31T08:39:31.000Z,1013.6
2022-10-31T08:40:46.000Z,1013.6
2022-10-31T08:42:01.000Z,1013.5
2022-10-31T08:43:18.000Z,1013.5
2022-10-31T08:44:34.000Z,1013.5
2022-10-31T08:45:50.000Z,1013.5
2022-10-31T08:47:06.000Z,1013.5
2022-10-31T08:48:23.000Z,1013.5
2022-10-31T08:49:39.000Z,1013.5
2022-10-31T08:50:55.000Z,1013.6
2022-10-31T08:52:11.000Z,1013.6
2022-10-31T08:54:44.000Z,1013.6
2022-10-31T08:56:00.000Z,1013.6
2022-10-31T08:57:16.000Z,1013.5
2022-10-31T08:58:31.000Z,1013.5
2022-10-31T08:59:48.000Z,1013.4
2022-10-31T09:01:04.000Z,1013.4
2022-10-31T09:02:20.000Z,1013.4
2022-10-31T09:03:36.000Z,1013.3
2022-10-31T09:04:53.000Z,1013.3
2022-10-31T09:06:09.000Z,1013.3
2022-10-31T09:08:41.000Z,1013.3
2022-10-31T09:09:58.000Z,1013.3
2022-10-31T09:11:14.000Z,1013.4
2022-10-31T09:12:30.000Z,1013.4
2022-10-31T09:13:46.000Z,1013.4
2022-10-31T09:15:02.000Z,1013.4
2022-10-31T09:16:18.000Z,1013.4
2022-10-31T09:17:34.000Z,1013.4
2022-10-31T09:18:50.000Z,1013.5
2022-10-31T09:20:06.000Z,1013.4
2022-10-31T09:22:38.000Z,1013.5
2022-10-31T09:23:53.000Z,1013.5
2022-10-31T09:25:09.000Z,1013.5
2022-10-31T09:26:26.000Z,1013.4
2022-10-31T09:28:58.000Z,1013.4
2022-10-31T09:30:13.000Z,1013.4
2022-10-31T09:31:29.000Z,1013.4
2022-10-31T09:32:45.000Z,1013.4
2022-10-31T09:34:01.000Z,1013.3
2022-10-31T09:35:17.000Z,1013.3
2022-10-31T09:36:34.000Z,1013.2
2022-10-31T09:37:50.000Z,1013.3
2022-10-31T09:39:06.000Z,1013.2
2022-10-31T09:40:22.000Z,1013.2
2022-10-31T09:41:39.000Z,1013.2
2022-10-31T09:42:55.000Z,1013.1
2022-10-31T09:44:10.000Z,1013.1
2022-10-31T09:45:25.000Z,1013.1
2022-10-31T09:46:41.000Z,1013.2
2022-10-31T09:47:58.000Z,1013.1
2022-10-31T09:49:14.000Z,1013.2
2022-10-31T09:50:30.000Z,1013.1
2022-10-31T09:51:46.000Z,1013.1
2022-10-31T09:53:03.000Z,1013.1
2022-10-31T09:54:19.000Z,1013.1
2022-10-31T09:55:35.000Z,1013
2022-10-31T09:56:51.000Z,1013.1
2022-10-31T09:58:07.000Z,1013
2022-10-31T09:59:22.000Z,1013.1
2022-10-31T10:00:38.000Z,1013.1
2022-10-31T10:01:54.000Z,1013
2022-10-31T10:03:11.000Z,1013.1
2022-10-31T10:04:27.000Z,1013
2022-10-31T10:06:59.000Z,1013
2022-10-31T10:08:15.000Z,1013
2022-10-31T10:10:48.000Z,1013
2022-10-31T10:12:04.000Z,1012.9
2022-10-31T10:13:20.000Z,1013
2022-10-31T10:14:36.000Z,1012.9
2022-10-31T10:15:51.000Z,1013
2022-10-31T10:17:07.000Z,1013
2022-10-31T10:18:23.000Z,1012.9
2022-10-31T10:19:40.000Z,1012.9
2022-10-31T10:20:56.000Z,1012.9
2022-10-31T10:22:12.000Z,1012.9
2022-10-31T10:23:28.000Z,1012.9
2022-10-31T10:24:45.000Z,1012.9
2022-10-31T10:27:17.000Z,1012.9
2022-10-31T10:29:50.000Z,1012.9
2022-10-31T10:31:05.000Z,1012.9
2022-10-31T10:33:36.000Z,1012.8
2022-10-31T10:34:52.000Z,1012.8
2022-10-31T10:36:09.000Z,1012.8
2022-10-31T10:37:25.000Z,1012.8
2022-10-31T10:38:41.000Z,1012.8
2022-10-31T10:41:14.000Z,1012.7
2022-10-31T10:42:30.000Z,1012.7
2022-10-31T10:45:02.000Z,1012.8
2022-10-31T10:46:19.000Z,1012.8
2022-10-31T10:47:35.000Z,1012.8
2022-10-31T10:48:51.000Z,1012.8
2022-10-31T10:51:23.000Z,1012.7
2022-10-31T10:53:54.000Z,1012.7
2022-10-31T10:55:09.000Z,1012.6
2022-10-31T10:57:42.000Z,1012.6
2022-10-31T10:58:58.000Z,1012.5
2022-10-31T11:00:14.000Z,1012.5
2022-10-31T11:01:30.000Z,1012.5
2022-10-31T11:02:47.000Z,1012.5
2022-10-31T11:04:03.000Z,1012.5
2022-10-31T11:05:19.000Z,1012.5
2022-10-31T11:06:35.000Z,1012.4
2022-10-31T11:07:52.000Z,1012.4
2022-10-31T11:09:08.000Z,1012.3
2022-10-31T11:10:24.000Z,1012.3
2022-10-31T11:11:39.000Z,1012.3
2022-10-31T11:12:56.000Z,1012.3
2022-10-31T11:14:12.000Z,1012.3
2022-10-31T11:15:28.000Z,1012.3
2022-10-31T11:16:44.000Z,1012.3
2022-10-31T11:18:00.000Z,1012.3
2022-10-31T11:19:17.000Z,1012.1
2022-10-31T11:23:04.000Z,1012.1
2022-10-31T11:24:20.000Z,1012.1
2022-10-31T11:25:36.000Z,1012.1
2022-10-31T11:26:52.000Z,1012
2022-10-31T11:28:08.000Z,1012
2022-10-31T11:29:25.000Z,1012
2022-10-31T11:30:41.000Z,1012
2022-10-31T11:31:57.000Z,1012
2022-10-31T11:33:13.000Z,1012
2022-10-31T11:34:30.000Z,1011.9
2022-10-31T11:37:02.000Z,1011.8
2022-10-31T11:38:18.000Z,1011.8
2022-10-31T11:39:34.000Z,1011.8
2022-10-31T11:40:50.000Z,1011.7
2022-10-31T11:42:06.000Z,1011.8
2022-10-31T11:43:22.000Z,1011.7
2022-10-31T11:44:38.000Z,1011.6
2022-10-31T11:45:55.000Z,1011.6
2022-10-31T11:47:11.000Z,1011.6
2022-10-31T11:48:27.000Z,1011.6
2022-10-31T11:49:42.000Z,1011.6
2022-10-31T11:52:14.000Z,1011.5
2022-10-31T11:53:30.000Z,1011.6
2022-10-31T11:54:46.000Z,1011.4
2022-10-31T11:56:03.000Z,1011.5
2022-10-31T11:57:19.000Z,1011.5
2022-10-31T11:58:35.000Z,1011.4
2022-10-31T12:01:07.000Z,1011.4
2022-10-31T12:02:24.000Z,1011.4
2022-10-31T12:03:40.000Z,1011.4
2022-10-31T12:04:56.000Z,1011.3
2022-10-31T12:06:12.000Z,1011.3
2022-10-31T12:07:28.000Z,1011.2
2022-10-31T12:08:44.000Z,1011.2
2022-10-31T12:10:00.000Z,1011.2
2022-10-31T12:11:16.000Z,1011.1
2022-10-31T12:12:33.000Z,1011
2022-10-31T12:13:49.000Z,1011
2022-10-31T12:15:05.000Z,1011
2022-10-31T12:16:21.000Z,1011
2022-10-31T12:17:38.000Z,1011
2022-10-31T12:18:53.000Z,1011
2022-10-31T12:20:09.000Z,1011
2022-10-31T12:21:24.000Z,1010.9
2022-10-31T12:22:41.000Z,1010.8
2022-10-31T12:23:57.000Z,1010.8
2022-10-31T12:25:13.000Z,1010.8
2022-10-31T12:26:29.000Z,1010.7
2022-10-31T12:27:45.000Z,1010.7
2022-10-31T12:29:02.000Z,1010.7
2022-10-31T12:30:18.000Z,1010.8
2022-10-31T12:31:34.000Z,1010.9
2022-10-31T12:32:50.000Z,1010.9
2022-10-31T12:34:07.000Z,1010.9
2022-10-31T12:35:23.000Z,1010.9
2022-10-31T12:36:39.000Z,1010.8
2022-10-31T12:37:54.000Z,1010.8
2022-10-31T12:39:11.000Z,1010.9
2022-10-31T12:40:27.000Z,1010.9
2022-10-31T12:41:43.000Z,1010.9
2022-10-31T12:42:59.000Z,1010.9
2022-10-31T12:44:15.000Z,1011
2022-10-31T12:45:32.000Z,1011
2022-10-31T12:46:48.000Z,1011
2022-10-31T12:48:04.000Z,1010.9
2022-10-31T12:49:20.000Z,1010.9
2022-10-31T12:50:37.000Z,1010.9
2022-10-31T12:51:53.000Z,1010.9
2022-10-31T12:53:09.000Z,1010.8
2022-10-31T12:54:24.000Z,1010.8
2022-10-31T12:55:41.000Z,1010.7
2022-10-31T12:56:57.000Z,1010.6
2022-10-31T12:58:13.000Z,1010.6
2022-10-31T12:59:29.000Z,1010.5
2022-10-31T13:00:46.000Z,1010.5
2022-10-31T13:02:02.000Z,1010.5
2022-10-31T13:04:34.000Z,1010.5
2022-10-31T13:05:50.000Z,1010.4
2022-10-31T13:07:07.000Z,1010.4
2022-10-31T13:08:23.000Z,1010.4
2022-10-31T13:09:39.000Z,1010.4
2022-10-31T13:10:54.000Z,1010.5
2022-10-31T13:12:11.000Z,1010.4
2022-10-31T13:13:27.000Z,1010.4
2022-10-31T13:14:43.000Z,1010.3
2022-10-31T13:15:59.000Z,1010.3
2022-10-31T13:17:16.000Z,1010.3
2022-10-31T13:18:32.000Z,1010.2
2022-10-31T13:19:48.000Z,1010.2
2022-10-31T13:21:04.000Z,1010.2
2022-10-31T13:23:37.000Z,1010.1
2022-10-31T13:24:53.000Z,1010.2
2022-10-31T13:26:09.000Z,1010.2
2022-10-31T13:27:24.000Z,1010.2
2022-10-31T13:28:41.000Z,1010.1
2022-10-31T13:29:57.000Z,1010.1
2022-10-31T13:31:13.000Z,1010
2022-10-31T13:32:29.000Z,1010
2022-10-31T13:33:46.000Z,1009.9
2022-10-31T13:35:02.000Z,1010
2022-10-31T13:36:18.000Z,1010
2022-10-31T13:37:34.000Z,1010
2022-10-31T13:38:51.000Z,1009.9
2022-10-31T13:40:07.000Z,1009.9
2022-10-31T13:42:39.000Z,1009.9
2022-10-31T13:43:55.000Z,1009.8
2022-10-31T13:45:11.000Z,1009.8
2022-10-31T13:46:27.000Z,1009.8
2022-10-31T13:47:43.000Z,1009.9
2022-10-31T13:48:59.000Z,1009.8
2022-10-31T13:50:16.000Z,1009.8
2022-10-31T13:51:32.000Z,1009.8
2022-10-31T13:52:48.000Z,1009.8
2022-10-31T13:55:21.000Z,1009.7
2022-10-31T13:56:37.000Z,1009.7
2022-10-31T13:57:53.000Z,1009.6
2022-10-31T13:59:09.000Z,1009.6
2022-10-31T14:00:25.000Z,1009.6
2022-10-31T14:01:41.000Z,1009.6
2022-10-31T14:02:57.000Z,1009.5
2022-10-31T14:04:13.000Z,1009.5
2022-10-31T14:05:29.000Z,1009.5
2022-10-31T14:06:46.000Z,1009.5
2022-10-31T14:08:02.000Z,1009.4
2022-10-31T14:09:18.000Z,1009.4
2022-10-31T14:10:34.000Z,1009.4
2022-10-31T14:11:51.000Z,1009.4
2022-10-31T14:14:23.000Z,1009.4
2022-10-31T14:16:56.000Z,1009.4
2022-10-31T14:18:11.000Z,1009.4
2022-10-31T14:19:26.000Z,1009.4
2022-10-31T14:20:42.000Z,1009.4
2022-10-31T14:21:59.000Z,1009.3
2022-10-31T14:23:15.000Z,1009.3
2022-10-31T14:24:31.000Z,1009.3
2022-10-31T14:25:47.000Z,1009.2
2022-10-31T14:27:03.000Z,1009.1
2022-10-31T14:28:20.000Z,1009.1
2022-10-31T14:29:36.000Z,1009
2022-10-31T14:30:52.000Z,1009
2022-10-31T14:32:07.000Z,1009
2022-10-31T14:33:23.000Z,1009
2022-10-31T14:34:39.000Z,1009
2022-10-31T14:35:55.000Z,1009
2022-10-31T14:37:11.000Z,1009
2022-10-31T14:38:28.000Z,1009
2022-10-31T14:39:44.000Z,1008.9
2022-10-31T14:41:00.000Z,1008.9
2022-10-31T14:42:16.000Z,1008.9
2022-10-31T14:43:33.000Z,1008.9
2022-10-31T14:46:05.000Z,1008.8
2022-10-31T14:47:21.000Z,1008.8
2022-10-31T14:48:38.000Z,1008.8
2022-10-31T14:49:53.000Z,1008.7
2022-10-31T14:51:09.000Z,1008.8
2022-10-31T14:52:25.000Z,1008.8
2022-10-31T14:53:41.000Z,1008.7
2022-10-31T14:54:58.000Z,1008.7
2022-10-31T14:56:14.000Z,1008.6
2022-10-31T14:57:30.000Z,1008.6
2022-10-31T14:58:46.000Z,1008.7
2022-10-31T15:00:03.000Z,1008.7
2022-10-31T15:01:19.000Z,1008.7
2022-10-31T15:02:35.000Z,1008.6
2022-10-31T15:03:51.000Z,1008.6
2022-10-31T15:05:08.000Z,1008.6
2022-10-31T15:06:24.000Z,1008.5
2022-10-31T15:07:39.000Z,1008.5
2022-10-31T15:08:55.000Z,1008.5
2022-10-31T15:11:27.000Z,1008.4
2022-10-31T15:12:42.000Z,1008.4
2022-10-31T15:13:58.000Z,1008.5
2022-10-31T15:15:14.000Z,1008.5
2022-10-31T15:16:31.000Z,1008.5
2022-10-31T15:17:47.000Z,1008.6
2022-10-31T15:19:03.000Z,1008.6
2022-10-31T15:20:19.000Z,1008.7
2022-10-31T15:21:36.000Z,1008.7
2022-10-31T15:24:08.000Z,1008.7
2022-10-31T15:25:24.000Z,1008.6
2022-10-31T15:26:41.000Z,1008.6
2022-10-31T15:27:57.000Z,1008.6
2022-10-31T15:29:12.000Z,1008.6
2022-10-31T15:30:28.000Z,1008.5
2022-10-31T15:31:45.000Z,1008.5
2022-10-31T15:33:01.000Z,1008.5
2022-10-31T15:34:17.000Z,1008.4
2022-10-31T15:35:33.000Z,1008.4
2022-10-31T15:36:49.000Z,1008.3
2022-10-31T15:38:06.000Z,1008.3
2022-10-31T15:39:22.000Z,1008.3
2022-10-31T15:41:54.000Z,1008.2
2022-10-31T15:43:11.000Z,1008.2
2022-10-31T15:44:27.000Z,1008.2
2022-10-31T15:45:42.000Z,1008.2
2022-10-31T15:46:58.000Z,1008.2
2022-10-31T15:49:31.000Z,1008.3
2022-10-31T15:50:47.000Z,1008.3
2022-10-31T15:52:03.000Z,1008.2
2022-10-31T15:53:20.000Z,1008.2
2022-10-31T15:54:36.000Z,1008.3
2022-10-31T15:55:52.000Z,1008.2
2022-10-31T15:57:08.000Z,1008.2
2022-10-31T15:58:24.000Z,1008.2
2022-10-31T15:59:41.000Z,1008.2
2022-10-31T16:00:57.000Z,1008.2
2022-10-31T16:02:13.000Z,1008.2
2022-10-31T16:03:28.000Z,1008.2
2022-10-31T16:06:01.000Z,1008
2022-10-31T16:07:16.000Z,1007.9
2022-10-31T16:08:32.000Z,1007.8
2022-10-31T16:11:04.000Z,1008
2022-10-31T16:12:20.000Z,1008.2
2022-10-31T16:13:36.000Z,1008.3
2022-10-31T16:14:53.000Z,1008.3
2022-10-31T16:16:09.000Z,1008.3
2022-10-31T16:17:25.000Z,1008.2
2022-10-31T16:18:41.000Z,1008.1
2022-10-31T16:19:57.000Z,1008
2022-10-31T16:21:14.000Z,1008
2022-10-31T16:22:30.000Z,1008
2022-10-31T16:23:46.000Z,1008.1
2022-10-31T16:25:02.000Z,1008
2022-10-31T16:26:18.000Z,1008.1
2022-10-31T16:28:50.000Z,1008
2022-10-31T16:30:05.000Z,1008
2022-10-31T16:31:21.000Z,1007.9
2022-10-31T16:32:37.000Z,1008
2022-10-31T16:33:53.000Z,1008
2022-10-31T16:35:09.000Z,1007.9
2022-10-31T16:36:26.000Z,1007.8
2022-10-31T16:37:42.000Z,1007.8
2022-10-31T16:38:58.000Z,1007.9
2022-10-31T16:40:15.000Z,1007.9
2022-10-31T16:41:31.000Z,1007.9
2022-10-31T16:42:47.000Z,1007.9
2022-10-31T16:44:02.000Z,1007.8
2022-10-31T16:45:18.000Z,1007.8
2022-10-31T16:46:34.000Z,1007.9
2022-10-31T16:47:50.000Z,1007.8
2022-10-31T16:49:07.000Z,1007.9
2022-10-31T16:50:23.000Z,1007.9
2022-10-31T16:51:39.000Z,1007.9
2022-10-31T16:52:55.000Z,1007.8
2022-10-31T16:54:12.000Z,1007.9
2022-10-31T16:55:28.000Z,1007.9
2022-10-31T16:56:44.000Z,1007.8
2022-10-31T16:58:00.000Z,1007.9
2022-10-31T16:59:15.000Z,1007.7
2022-10-31T17:01:48.000Z,1007.7
2022-10-31T17:03:04.000Z,1007.6
2022-10-31T17:04:20.000Z,1007.6
2022-10-31T17:05:36.000Z,1007.5
2022-10-31T17:06:53.000Z,1007.6
2022-10-31T17:08:09.000Z,1007.5
2022-10-31T17:09:25.000Z,1007.5
2022-10-31T17:10:42.000Z,1007.5
2022-10-31T17:11:58.000Z,1007.5
2022-10-31T17:13:14.000Z,1007.5
2022-10-31T17:14:30.000Z,1007.5
2022-10-31T17:15:46.000Z,1007.5
2022-10-31T17:18:18.000Z,1007.5
2022-10-31T17:19:34.000Z,1007.4
2022-10-31T17:20:49.000Z,1007.5
2022-10-31T17:22:05.000Z,1007.5
2022-10-31T17:23:21.000Z,1007.5
2022-10-31T17:24:38.000Z,1007.5
2022-10-31T17:25:54.000Z,1007.5